createdAt,value
2018-02-21T00:01:28.273Z,0.00
2018-02-21T00:02:28.196Z,0.00
2018-02-21T00:04:21.464Z,0.00
2018-02-21T00:05:21.368Z,0.00
2018-02-21T00:07:14.748Z,0.00
2018-02-21T00:08:14.538Z,0.00
2018-02-21T00:10:07.778Z,0.00
2018-02-21T00:11:07.707Z,0.00
2018-02-21T00:13:00.969Z,0.00
2018-02-21T00:14:00.874Z,0.00
2018-02-21T00:15:54.120Z,0.00
2018-02-21T00:16:54.047Z,0.00
2018-02-21T00:18:47.302Z,0.00
2018-02-21T00:19:47.207Z,0.00
2018-02-21T00:21:40.456Z,0.00
2018-02-21T00:22:40.377Z,0.00
2018-02-21T00:24:33.642Z,0.00
2018-02-21T00:25:33.547Z,0.00
2018-02-21T00:27:26.815Z,0.00
2018-02-21T00:28:26.718Z,0.00
2018-02-21T00:30:20.078Z,0.00
2018-02-21T00:31:19.879Z,0.00
2018-02-21T00:33:13.150Z,0.00
2018-02-21T00:34:13.061Z,0.00
2018-02-21T00:36:06.411Z,0.00
2018-02-21T00:37:06.338Z,0.00
2018-02-21T00:38:59.598Z,0.00
2018-02-21T00:39:59.506Z,0.00
2018-02-21T00:41:52.753Z,0.00
2018-02-21T00:42:52.678Z,0.00
2018-02-21T00:44:45.933Z,0.00
2018-02-21T00:45:45.838Z,0.00
2018-02-21T00:47:39.106Z,0.00
2018-02-21T00:48:39.012Z,0.00
2018-02-21T00:50:32.368Z,0.00
2018-02-21T00:51:32.174Z,0.00
2018-02-21T00:53:25.443Z,0.00
2018-02-21T00:54:25.344Z,0.00
2018-02-21T00:56:18.706Z,0.00
2018-02-21T00:57:18.516Z,0.00
2018-02-21T00:59:11.786Z,0.00
2018-02-21T01:00:11.687Z,0.00
2018-02-21T01:02:04.932Z,0.00
2018-02-21T01:03:04.857Z,0.00
2018-02-21T01:04:58.122Z,0.00
2018-02-21T01:05:58.030Z,0.00
2018-02-21T01:07:51.295Z,0.00
2018-02-21T01:08:51.202Z,0.00
2018-02-21T01:10:44.438Z,0.00
2018-02-21T01:11:44.357Z,0.00
2018-02-21T01:13:37.628Z,0.00
2018-02-21T01:14:37.539Z,0.00
2018-02-21T01:16:30.783Z,0.00
2018-02-21T01:17:30.711Z,0.00
2018-02-21T01:19:23.973Z,0.00
2018-02-21T01:20:23.874Z,0.00
2018-02-21T01:22:17.124Z,0.00
2018-02-21T01:23:17.049Z,0.00
2018-02-21T01:25:10.314Z,0.00
2018-02-21T01:26:10.220Z,0.00
2018-02-21T01:28:03.492Z,0.00
2018-02-21T01:29:03.394Z,0.00
2018-02-21T01:30:56.639Z,0.00
2018-02-21T01:31:56.564Z,0.00
2018-02-21T01:33:49.834Z,0.00
2018-02-21T01:34:49.734Z,0.00
2018-02-21T01:36:42.981Z,0.00
2018-02-21T01:37:42.905Z,0.00
2018-02-21T01:39:36.170Z,0.00
2018-02-21T01:40:36.075Z,0.00
2018-02-21T01:42:29.397Z,0.00
2018-02-21T01:43:29.328Z,0.00
2018-02-21T01:45:22.595Z,0.00
2018-02-21T01:46:22.499Z,0.00
2018-02-21T01:48:15.763Z,0.00
2018-02-21T01:49:15.667Z,0.00
2018-02-21T01:51:08.920Z,0.00
2018-02-21T01:52:08.838Z,0.00
2018-02-21T01:54:02.216Z,0.00
2018-02-21T01:55:02.008Z,0.00
2018-02-21T01:56:55.375Z,0.00
2018-02-21T01:57:55.164Z,0.00
2018-02-21T01:59:48.547Z,0.00
2018-02-21T02:00:48.332Z,0.00
2018-02-21T02:02:41.587Z,0.00
2018-02-21T02:03:41.513Z,0.00
2018-02-21T02:05:34.777Z,0.00
2018-02-21T02:06:34.688Z,0.00
2018-02-21T02:08:27.947Z,0.00
2018-02-21T02:09:27.860Z,0.00
2018-02-21T02:11:21.099Z,0.00
2018-02-21T02:12:21.024Z,0.00
2018-02-21T02:14:14.289Z,0.00
2018-02-21T02:15:14.196Z,0.00
2018-02-21T02:17:07.441Z,0.00
2018-02-21T02:18:07.365Z,0.00
2018-02-21T02:20:00.624Z,0.00
2018-02-21T02:21:00.528Z,0.00
2018-02-21T02:22:53.782Z,0.00
2018-02-21T02:23:53.703Z,0.00
2018-02-21T02:25:46.969Z,0.00
2018-02-21T02:26:46.876Z,0.00
2018-02-21T02:28:40.134Z,0.00
2018-02-21T02:29:40.047Z,0.00
2018-02-21T02:31:33.404Z,0.00
2018-02-21T02:32:33.327Z,0.00
2018-02-21T02:34:26.593Z,0.00
2018-02-21T02:35:26.499Z,0.00
2018-02-21T02:37:19.743Z,0.00
2018-02-21T02:38:19.672Z,0.00
2018-02-21T02:40:12.925Z,0.00
2018-02-21T02:41:12.848Z,0.00
2018-02-21T02:43:06.192Z,0.00
2018-02-21T02:44:06.002Z,0.00
2018-02-21T02:45:59.384Z,0.00
2018-02-21T02:46:59.179Z,0.00
2018-02-21T02:48:52.445Z,0.00
2018-02-21T02:49:52.343Z,0.00
2018-02-21T02:51:45.703Z,0.00
2018-02-21T02:52:45.514Z,0.00
2018-02-21T02:54:38.779Z,0.00
2018-02-21T02:55:38.684Z,0.00
2018-02-21T02:57:31.931Z,0.00
2018-02-21T02:58:31.860Z,0.00
2018-02-21T03:00:25.111Z,0.00
2018-02-21T03:01:25.019Z,0.00
2018-02-21T03:03:18.378Z,0.00
2018-02-21T03:04:18.190Z,0.00
2018-02-21T03:06:11.461Z,0.00
2018-02-21T03:07:11.362Z,0.00
2018-02-21T03:09:04.626Z,0.00
2018-02-21T03:10:04.532Z,0.00
2018-02-21T03:11:57.778Z,0.00
2018-02-21T03:12:57.704Z,0.00
2018-02-21T03:14:50.966Z,0.00
2018-02-21T03:15:50.871Z,0.00
2018-02-21T03:17:44.119Z,0.00
2018-02-21T03:18:44.043Z,0.00
2018-02-21T03:20:37.297Z,0.00
2018-02-21T03:21:37.202Z,0.00
2018-02-21T03:23:30.451Z,0.00
2018-02-21T03:24:30.372Z,0.00
2018-02-21T03:26:23.640Z,0.00
2018-02-21T03:27:23.546Z,0.00
2018-02-21T03:29:16.928Z,0.00
2018-02-21T03:30:16.718Z,0.00
2018-02-21T03:32:10.079Z,0.00
2018-02-21T03:33:09.886Z,0.00
2018-02-21T03:35:03.152Z,0.00
2018-02-21T03:36:03.056Z,0.00
2018-02-21T03:37:56.400Z,0.00
2018-02-21T03:38:56.327Z,0.00
2018-02-21T03:40:49.707Z,0.00
2018-02-21T03:41:49.496Z,0.00
2018-02-21T03:43:42.857Z,0.00
2018-02-21T03:44:42.668Z,0.00
2018-02-21T03:46:35.929Z,0.00
2018-02-21T03:47:35.839Z,0.00
2018-02-21T03:49:29.105Z,0.00
2018-02-21T03:50:29.011Z,0.00
2018-02-21T03:52:22.370Z,0.00
2018-02-21T03:53:22.185Z,0.00
2018-02-21T03:55:15.560Z,0.00
2018-02-21T03:56:15.350Z,0.00
2018-02-21T03:58:08.596Z,0.00
2018-02-21T03:59:08.522Z,0.00
2018-02-21T04:01:01.900Z,0.00
2018-02-21T04:02:01.693Z,0.00
2018-02-21T04:03:54.946Z,0.00
2018-02-21T04:04:54.865Z,0.00
2018-02-21T04:06:48.130Z,0.00
2018-02-21T04:07:48.038Z,0.00
2018-02-21T04:09:41.317Z,0.00
2018-02-21T04:10:41.222Z,0.00
2018-02-21T04:12:34.465Z,0.00
2018-02-21T04:13:34.392Z,0.00
2018-02-21T04:15:27.659Z,0.00
2018-02-21T04:16:27.568Z,0.00
2018-02-21T04:18:20.923Z,0.00
2018-02-21T04:19:20.734Z,0.00
2018-02-21T04:21:14.114Z,0.00
2018-02-21T04:22:13.907Z,0.00
2018-02-21T04:24:07.154Z,0.00
2018-02-21T04:25:07.077Z,0.00
2018-02-21T04:27:00.426Z,0.00
2018-02-21T04:28:00.329Z,0.00
2018-02-21T04:29:53.586Z,0.00
2018-02-21T04:30:53.491Z,0.00
2018-02-21T04:32:46.850Z,0.00
2018-02-21T04:33:46.662Z,0.00
2018-02-21T04:35:39.931Z,0.00
2018-02-21T04:36:39.834Z,0.00
2018-02-21T04:38:33.087Z,0.00
2018-02-21T04:39:33.002Z,0.00
2018-02-21T04:41:26.266Z,0.00
2018-02-21T04:42:26.172Z,0.00
2018-02-21T04:44:19.534Z,0.00
2018-02-21T04:45:19.344Z,0.00
2018-02-21T04:47:12.721Z,0.00
2018-02-21T04:48:12.513Z,0.00
2018-02-21T04:50:05.773Z,0.00
2018-02-21T04:51:05.678Z,0.00
2018-02-21T04:52:58.925Z,0.00
2018-02-21T04:53:58.848Z,0.00
2018-02-21T04:55:52.112Z,0.00
2018-02-21T04:56:52.021Z,0.00
2018-02-21T04:58:45.375Z,0.00
2018-02-21T04:59:45.189Z,0.00
2018-02-21T05:01:38.452Z,0.00
2018-02-21T05:02:38.357Z,0.00
2018-02-21T05:04:31.719Z,0.00
2018-02-21T05:05:31.527Z,0.00
2018-02-21T05:07:24.793Z,0.00
2018-02-21T05:08:24.698Z,0.00
2018-02-21T05:10:17.956Z,0.00
2018-02-21T05:11:17.860Z,0.00
2018-02-21T05:13:11.106Z,0.00
2018-02-21T05:14:11.028Z,0.00
2018-02-21T05:16:04.407Z,0.00
2018-02-21T05:17:04.201Z,0.00
2018-02-21T05:18:57.454Z,0.00
2018-02-21T05:19:57.372Z,0.00
2018-02-21T05:21:50.640Z,0.00
2018-02-21T05:22:50.545Z,0.00
2018-02-21T05:24:43.788Z,0.00
2018-02-21T05:25:43.714Z,0.00
2018-02-21T05:27:36.978Z,0.00
2018-02-21T05:28:36.882Z,0.00
2018-02-21T05:30:30.255Z,0.00
2018-02-21T05:31:30.049Z,0.00
2018-02-21T05:33:23.404Z,0.00
2018-02-21T05:34:23.328Z,0.00
2018-02-21T05:36:16.593Z,0.00
2018-02-21T05:37:16.521Z,0.00
2018-02-21T05:39:09.855Z,0.00
2018-02-21T05:40:09.650Z,0.00
2018-02-21T05:42:02.910Z,0.00
2018-02-21T05:43:02.814Z,0.00
2018-02-21T05:44:56.061Z,0.00
2018-02-21T05:45:56.023Z,0.00
2018-02-21T05:47:49.283Z,0.00
2018-02-21T05:48:49.188Z,0.00
2018-02-21T05:50:42.441Z,0.00
2018-02-21T05:51:42.345Z,0.00
2018-02-21T05:53:36.581Z,0.00
2018-02-21T05:54:36.504Z,0.00
2018-02-21T05:56:29.885Z,0.00
2018-02-21T05:57:29.661Z,0.00
2018-02-21T05:59:22.898Z,4.00
2018-02-21T06:00:22.821Z,4.00
2018-02-21T06:02:16.076Z,0.00
2018-02-21T06:03:15.978Z,4.00
2018-02-21T06:05:09.272Z,4.00
2018-02-21T06:06:09.168Z,4.00
2018-02-21T06:08:02.373Z,8.00
2018-02-21T06:09:02.295Z,8.00
2018-02-21T06:10:55.551Z,8.00
2018-02-21T06:11:55.457Z,8.00
2018-02-21T06:13:48.694Z,16.00
2018-02-21T06:14:48.616Z,16.00
2018-02-21T06:16:41.867Z,20.00
2018-02-21T06:17:41.772Z,24.00
2018-02-21T06:19:35.132Z,32.00
2018-02-21T06:20:34.930Z,36.00
2018-02-21T06:22:28.184Z,44.00
2018-02-21T06:23:28.090Z,48.00
2018-02-21T06:25:21.434Z,64.00
2018-02-21T06:26:21.336Z,72.00
2018-02-21T06:28:14.578Z,88.00
2018-02-21T06:29:14.495Z,92.00
2018-02-21T06:31:07.750Z,108.00
2018-02-21T06:32:07.697Z,120.00
2018-02-21T06:34:00.887Z,140.00
2018-02-21T06:35:00.811Z,148.00
2018-02-21T06:36:55.063Z,176.00
2018-02-21T06:37:55.020Z,184.00
2018-02-21T06:39:48.203Z,212.00
2018-02-21T06:40:48.126Z,228.00
2018-02-21T06:42:41.431Z,256.00
2018-02-21T06:43:41.331Z,272.00
2018-02-21T06:45:34.710Z,304.00
2018-02-21T06:46:34.500Z,316.00
2018-02-21T06:48:27.736Z,352.00
2018-02-21T06:49:27.661Z,380.00
2018-02-21T06:51:21.039Z,436.00
2018-02-21T06:52:20.833Z,460.00
2018-02-21T06:54:14.062Z,500.00
2018-02-21T06:55:13.985Z,528.00
2018-02-21T06:57:07.255Z,568.00
2018-02-21T06:58:07.150Z,584.00
2018-02-21T07:00:01.410Z,620.00
2018-02-21T07:01:01.331Z,640.00
2018-02-21T07:02:54.586Z,700.00
2018-02-21T07:03:54.489Z,744.00
2018-02-21T07:05:47.740Z,828.00
2018-02-21T07:06:47.647Z,864.00
2018-02-21T07:08:40.883Z,916.00
2018-02-21T07:09:40.803Z,940.00
2018-02-21T07:11:34.069Z,984.00
2018-02-21T07:12:33.972Z,1004.00
2018-02-21T07:14:27.209Z,1048.00
2018-02-21T07:15:27.176Z,1068.00
2018-02-21T07:17:20.385Z,1108.00
2018-02-21T07:18:20.291Z,1132.00
2018-02-21T07:20:14.526Z,1172.00
2018-02-21T07:21:14.448Z,1192.00
2018-02-21T07:23:07.701Z,1228.00
2018-02-21T07:24:07.611Z,1248.00
2018-02-21T07:26:00.989Z,1288.00
2018-02-21T07:27:00.773Z,1308.00
2018-02-21T07:28:54.011Z,1340.00
2018-02-21T07:29:53.940Z,1364.00
2018-02-21T07:31:47.190Z,1396.00
2018-02-21T07:32:47.093Z,1412.00
2018-02-21T07:34:41.403Z,1448.00
2018-02-21T07:35:41.328Z,1464.00
2018-02-21T07:37:34.586Z,1500.00
2018-02-21T07:38:34.487Z,1520.00
2018-02-21T07:40:27.721Z,1548.00
2018-02-21T07:41:27.645Z,1568.00
2018-02-21T07:43:20.917Z,1604.00
2018-02-21T07:44:20.823Z,1624.00
2018-02-21T07:46:13.701Z,1664.00
2018-02-21T07:47:13.505Z,1688.00
2018-02-21T07:49:07.741Z,1724.00
2018-02-21T07:50:07.662Z,1740.00
2018-02-21T07:52:00.924Z,1776.00
2018-02-21T07:53:00.826Z,1788.00
2018-02-21T07:54:54.062Z,1840.00
2018-02-21T07:55:54.059Z,1856.00
2018-02-21T07:57:47.240Z,1888.00
2018-02-21T07:58:47.220Z,1908.00
2018-02-21T08:00:40.384Z,1928.00
2018-02-21T08:01:40.327Z,1956.00
2018-02-21T08:03:34.583Z,2004.00
2018-02-21T08:04:34.482Z,2012.00
2018-02-21T08:06:28.857Z,2068.00
2018-02-21T08:07:28.649Z,2080.00
2018-02-21T08:09:21.892Z,2120.00
2018-02-21T08:10:21.818Z,2164.00
2018-02-21T08:12:15.088Z,2188.00
2018-02-21T08:13:15.020Z,2204.00
2018-02-21T08:15:08.225Z,2256.00
2018-02-21T08:16:08.157Z,2272.00
2018-02-21T08:18:01.427Z,2328.00
2018-02-21T08:19:01.332Z,2352.00
2018-02-21T08:20:54.580Z,2392.00
2018-02-21T08:21:54.536Z,2416.00
2018-02-21T08:23:47.886Z,2484.00
2018-02-21T08:24:47.674Z,2516.00
2018-02-21T08:26:41.068Z,2600.00
2018-02-21T08:27:40.841Z,2632.00
2018-02-21T08:29:34.082Z,2672.00
2018-02-21T08:30:34.010Z,2688.00
2018-02-21T08:32:27.263Z,2748.00
2018-02-21T08:33:27.168Z,2780.00
2018-02-21T08:35:20.435Z,2840.00
2018-02-21T08:36:20.360Z,2916.00
2018-02-21T08:38:13.617Z,3032.00
2018-02-21T08:39:13.519Z,3072.00
2018-02-21T08:41:06.776Z,3196.00
2018-02-21T08:42:06.700Z,3292.00
2018-02-21T08:43:59.958Z,3532.00
2018-02-21T08:44:59.863Z,3696.00
2018-02-21T08:46:53.134Z,4152.00
2018-02-21T08:47:53.042Z,4244.00
2018-02-21T08:49:46.274Z,4256.00
2018-02-21T08:50:46.201Z,4224.00
2018-02-21T08:52:39.470Z,4340.00
2018-02-21T08:53:39.379Z,4384.00
2018-02-21T08:55:32.619Z,4448.00
2018-02-21T08:56:32.545Z,4484.00
2018-02-21T08:58:25.928Z,4580.00
2018-02-21T08:59:25.718Z,4588.00
2018-02-21T09:01:18.982Z,4656.00
2018-02-21T09:02:18.909Z,4680.00
2018-02-21T09:04:12.172Z,4728.00
2018-02-21T09:05:12.079Z,4768.00
2018-02-21T09:07:05.431Z,4812.00
2018-02-21T09:08:05.334Z,4928.00
2018-02-21T09:09:58.578Z,4944.00
2018-02-21T09:10:58.545Z,4924.00
2018-02-21T09:12:51.891Z,5004.00
2018-02-21T09:13:51.711Z,5064.00
2018-02-21T09:15:44.950Z,5104.00
2018-02-21T09:16:44.875Z,5156.00
2018-02-21T09:18:38.144Z,5136.00
2018-02-21T09:19:38.045Z,5220.00
2018-02-21T09:21:31.460Z,5308.00
2018-02-21T09:22:31.338Z,5296.00
2018-02-21T09:24:24.614Z,5564.00
2018-02-21T09:25:24.523Z,5792.00
2018-02-21T09:27:17.940Z,6084.00
2018-02-21T09:28:17.704Z,6196.00
2018-02-21T09:30:10.951Z,6252.00
2018-02-21T09:31:10.884Z,6260.00
2018-02-21T09:33:04.147Z,6320.00
2018-02-21T09:34:04.061Z,6252.00
2018-02-21T09:35:57.314Z,5932.00
2018-02-21T09:36:57.283Z,6044.00
2018-02-21T09:38:50.628Z,6100.00
2018-02-21T09:39:50.416Z,6492.00
2018-02-21T09:41:43.674Z,7196.00
2018-02-21T09:42:43.616Z,7556.00
2018-02-21T09:44:36.874Z,7460.00
2018-02-21T09:45:36.782Z,7488.00
2018-02-21T09:47:30.072Z,7256.00
2018-02-21T09:48:29.961Z,7028.00
2018-02-21T09:50:23.330Z,6560.00
2018-02-21T09:51:23.150Z,6568.00
2018-02-21T09:53:16.422Z,6512.00
2018-02-21T09:54:16.334Z,6444.00
2018-02-21T09:56:09.700Z,6344.00
2018-02-21T09:57:09.529Z,6300.00
2018-02-21T09:59:02.786Z,6288.00
2018-02-21T10:00:02.696Z,6316.00
2018-02-21T10:01:56.065Z,6520.00
2018-02-21T10:02:55.877Z,6452.00
2018-02-21T10:04:49.246Z,6584.00
2018-02-21T10:05:49.056Z,6728.00
2018-02-21T10:07:42.321Z,6812.00
2018-02-21T10:08:42.237Z,6648.00
2018-02-21T10:10:35.490Z,6664.00
2018-02-21T10:11:35.422Z,6676.00
2018-02-21T10:13:28.688Z,6680.00
2018-02-21T10:14:28.600Z,6612.00
2018-02-21T10:16:21.849Z,6612.00
2018-02-21T10:17:21.777Z,6596.00
2018-02-21T10:19:15.171Z,6788.00
2018-02-21T10:20:14.962Z,6804.00
2018-02-21T10:22:08.215Z,6800.00
2018-02-21T10:23:08.139Z,6812.00
2018-02-21T10:25:01.427Z,6812.00
2018-02-21T10:26:01.340Z,6812.00
2018-02-21T10:27:54.609Z,6732.00
2018-02-21T10:28:54.519Z,6724.00
2018-02-21T10:30:47.771Z,6696.00
2018-02-21T10:31:47.701Z,6556.00
2018-02-21T10:33:40.971Z,6716.00
2018-02-21T10:34:40.883Z,6748.00
2018-02-21T10:36:34.133Z,6856.00
2018-02-21T10:37:34.061Z,6916.00
2018-02-21T10:39:27.429Z,6892.00
2018-02-21T10:40:27.344Z,6932.00
2018-02-21T10:42:20.602Z,7028.00
2018-02-21T10:43:20.534Z,6992.00
2018-02-21T10:45:13.805Z,6908.00
2018-02-21T10:46:13.722Z,6964.00
2018-02-21T10:48:06.989Z,7048.00
2018-02-21T10:49:06.902Z,7048.00
2018-02-21T10:51:00.271Z,7004.00
2018-02-21T10:52:00.096Z,6940.00
2018-02-21T10:53:53.434Z,6956.00
2018-02-21T10:54:53.342Z,7212.00
2018-02-21T10:56:46.602Z,6936.00
2018-02-21T10:57:46.523Z,6952.00
2018-02-21T10:59:39.800Z,7040.00
2018-02-21T11:00:39.704Z,7032.00
2018-02-21T11:02:32.956Z,7124.00
2018-02-21T11:03:32.887Z,7188.00
2018-02-21T11:05:26.155Z,7060.00
2018-02-21T11:06:26.067Z,7092.00
2018-02-21T11:08:20.186Z,7108.00
2018-02-21T11:09:20.098Z,7124.00
2018-02-21T11:11:13.407Z,7016.00
2018-02-21T11:12:13.343Z,7016.00
2018-02-21T11:14:06.610Z,6916.00
2018-02-21T11:15:06.523Z,6792.00
2018-02-21T11:16:59.772Z,6468.00
2018-02-21T11:17:59.760Z,6408.00
2018-02-21T11:19:53.089Z,6076.00
2018-02-21T11:20:52.889Z,6068.00
2018-02-21T11:22:46.150Z,5804.00
2018-02-21T11:23:46.127Z,5748.00
2018-02-21T11:25:39.471Z,5732.00
2018-02-21T11:26:39.345Z,5792.00
2018-02-21T11:28:32.608Z,5868.00
2018-02-21T11:29:32.566Z,5888.00
2018-02-21T11:31:25.887Z,5864.00
2018-02-21T11:32:25.695Z,5940.00
2018-02-21T11:34:18.963Z,5800.00
2018-02-21T11:35:18.870Z,5704.00
2018-02-21T11:37:12.125Z,5580.00
2018-02-21T11:38:12.048Z,5572.00
2018-02-21T11:40:05.453Z,5776.00
2018-02-21T11:41:05.339Z,5796.00
2018-02-21T11:42:58.677Z,5660.00
2018-02-21T11:43:58.602Z,5656.00
2018-02-21T11:45:51.877Z,5664.00
2018-02-21T11:46:51.777Z,5640.00
2018-02-21T11:48:45.051Z,5604.00
2018-02-21T11:49:44.960Z,5632.00
2018-02-21T11:51:39.211Z,4964.00
2018-02-21T11:52:39.133Z,5184.00
2018-02-21T11:54:32.396Z,5460.00
2018-02-21T11:55:32.304Z,5480.00
2018-02-21T11:57:25.668Z,5400.00
2018-02-21T11:58:25.477Z,5468.00
2018-02-21T12:00:18.860Z,5336.00
2018-02-21T12:01:18.649Z,5444.00
2018-02-21T12:03:11.893Z,5528.00
2018-02-21T12:04:11.822Z,5588.00
2018-02-21T12:06:05.204Z,5520.00
2018-02-21T12:07:05.012Z,5624.00
2018-02-21T12:08:58.294Z,5628.00
2018-02-21T12:09:58.203Z,5752.00
2018-02-21T12:11:51.447Z,5840.00
2018-02-21T12:12:51.377Z,5996.00
2018-02-21T12:14:44.640Z,5920.00
2018-02-21T12:15:44.547Z,5932.00
2018-02-21T12:17:37.794Z,6020.00
2018-02-21T12:18:37.717Z,5820.00
2018-02-21T12:20:31.103Z,5740.00
2018-02-21T12:21:30.892Z,5552.00
2018-02-21T12:23:24.138Z,4564.00
2018-02-21T12:24:24.069Z,4724.00
2018-02-21T12:26:17.429Z,4832.00
2018-02-21T12:27:17.338Z,5016.00
2018-02-21T12:29:10.603Z,4532.00
2018-02-21T12:30:10.508Z,5224.00
2018-02-21T12:32:03.752Z,6092.00
2018-02-21T12:33:03.679Z,5652.00
2018-02-21T12:34:56.954Z,5356.00
2018-02-21T12:35:56.850Z,5676.00
2018-02-21T12:37:50.096Z,4592.00
2018-02-21T12:38:50.026Z,6112.00
2018-02-21T12:40:43.347Z,5812.00
2018-02-21T12:41:43.201Z,5912.00
2018-02-21T12:43:36.445Z,4868.00
2018-02-21T12:44:36.371Z,5872.00
2018-02-21T12:46:29.633Z,5940.00
2018-02-21T12:47:29.544Z,4732.00
2018-02-21T12:49:22.821Z,5540.00
2018-02-21T12:50:22.730Z,5128.00
2018-02-21T12:52:15.974Z,4796.00
2018-02-21T12:53:15.953Z,4592.00
2018-02-21T12:55:09.166Z,5464.00
2018-02-21T12:56:09.075Z,5328.00
2018-02-21T12:58:02.320Z,5224.00
2018-02-21T12:59:02.244Z,5364.00
2018-02-21T13:00:55.634Z,5292.00
2018-02-21T13:01:55.418Z,4892.00
2018-02-21T13:03:49.664Z,4740.00
2018-02-21T13:04:49.591Z,4328.00
2018-02-21T13:06:43.976Z,3888.00
2018-02-21T13:07:43.764Z,4740.00
2018-02-21T13:09:38.033Z,3744.00
2018-02-21T13:10:37.939Z,4740.00
2018-02-21T13:12:31.303Z,4028.00
2018-02-21T13:13:31.112Z,4276.00
2018-02-21T13:15:24.374Z,3560.00
2018-02-21T13:16:24.280Z,4036.00
2018-02-21T13:18:17.534Z,4020.00
2018-02-21T13:19:17.460Z,3752.00
2018-02-21T13:21:10.743Z,3784.00
2018-02-21T13:22:10.629Z,4164.00
2018-02-21T13:24:03.874Z,3536.00
2018-02-21T13:25:03.800Z,3848.00
2018-02-21T13:26:57.182Z,3644.00
2018-02-21T13:27:56.973Z,4124.00
2018-02-21T13:29:50.357Z,4100.00
2018-02-21T13:30:50.145Z,4132.00
2018-02-21T13:32:44.390Z,3392.00
2018-02-21T13:33:44.318Z,3788.00
2018-02-21T13:35:37.578Z,4192.00
2018-02-21T13:36:37.484Z,4140.00
2018-02-21T13:38:30.729Z,4128.00
2018-02-21T13:39:30.659Z,4180.00
2018-02-21T13:41:24.044Z,4200.00
2018-02-21T13:42:23.829Z,4172.00
2018-02-21T13:44:17.075Z,4008.00
2018-02-21T13:45:16.995Z,3888.00
2018-02-21T13:47:10.266Z,3860.00
2018-02-21T13:48:10.174Z,3908.00
2018-02-21T13:50:03.433Z,3772.00
2018-02-21T13:51:03.348Z,3772.00
2018-02-21T13:52:56.586Z,3804.00
2018-02-21T13:53:56.513Z,3524.00
2018-02-21T13:55:49.789Z,3776.00
2018-02-21T13:56:49.700Z,3816.00
2018-02-21T13:58:42.944Z,3764.00
2018-02-21T13:59:42.860Z,3732.00
2018-02-21T14:01:36.251Z,3664.00
2018-02-21T14:02:36.037Z,3632.00
2018-02-21T14:04:29.412Z,3612.00
2018-02-21T14:05:29.338Z,3584.00
2018-02-21T14:07:22.600Z,3520.00
2018-02-21T14:08:22.508Z,3472.00
2018-02-21T14:10:15.915Z,3408.00
2018-02-21T14:11:15.679Z,3380.00
2018-02-21T14:13:08.923Z,3304.00
2018-02-21T14:14:08.850Z,3344.00
2018-02-21T14:16:02.112Z,3232.00
2018-02-21T14:17:02.020Z,3464.00
2018-02-21T14:18:55.385Z,3464.00
2018-02-21T14:19:55.190Z,3440.00
2018-02-21T14:21:48.455Z,3376.00
2018-02-21T14:22:48.361Z,3368.00
2018-02-21T14:24:41.604Z,3256.00
2018-02-21T14:25:41.531Z,3228.00
2018-02-21T14:27:34.796Z,3156.00
2018-02-21T14:28:34.706Z,3148.00
2018-02-21T14:30:27.966Z,3092.00
2018-02-21T14:31:27.877Z,3060.00
2018-02-21T14:33:21.120Z,3160.00
2018-02-21T14:34:21.051Z,3220.00
2018-02-21T14:36:14.431Z,3140.00
2018-02-21T14:37:14.218Z,3096.00
2018-02-21T14:39:07.470Z,3092.00
2018-02-21T14:40:07.383Z,3052.00
2018-02-21T14:42:00.771Z,3028.00
2018-02-21T14:43:00.555Z,2992.00
2018-02-21T14:44:53.798Z,3016.00
2018-02-21T14:45:53.726Z,2976.00
2018-02-21T14:47:47.112Z,2924.00
2018-02-21T14:48:46.898Z,2860.00
2018-02-21T14:50:40.164Z,2856.00
2018-02-21T14:51:40.069Z,2820.00
2018-02-21T14:53:33.432Z,2812.00
2018-02-21T14:54:33.335Z,2752.00
2018-02-21T14:56:26.601Z,2816.00
2018-02-21T14:57:26.508Z,2776.00
2018-02-21T14:59:19.749Z,2692.00
2018-02-21T15:00:19.675Z,2692.00
2018-02-21T15:02:12.940Z,2640.00
2018-02-21T15:03:12.851Z,2592.00
2018-02-21T15:05:06.210Z,2604.00
2018-02-21T15:06:06.016Z,2580.00
2018-02-21T15:07:59.278Z,2460.00
2018-02-21T15:08:59.185Z,2484.00
2018-02-21T15:10:52.571Z,2500.00
2018-02-21T15:11:52.359Z,2496.00
2018-02-21T15:13:45.601Z,2516.00
2018-02-21T15:14:45.598Z,2536.00
2018-02-21T15:16:38.787Z,2472.00
2018-02-21T15:17:38.690Z,2504.00
2018-02-21T15:19:31.952Z,2504.00
2018-02-21T15:20:31.878Z,2492.00
2018-02-21T15:22:25.137Z,2488.00
2018-02-21T15:23:25.055Z,2480.00
2018-02-21T15:25:18.290Z,2464.00
2018-02-21T15:26:18.214Z,2456.00
2018-02-21T15:28:11.479Z,2440.00
2018-02-21T15:29:11.386Z,2432.00
2018-02-21T15:31:04.767Z,2444.00
2018-02-21T15:32:04.553Z,2428.00
2018-02-21T15:33:57.796Z,2396.00
2018-02-21T15:34:57.720Z,2368.00
2018-02-21T15:36:50.982Z,2332.00
2018-02-21T15:37:50.890Z,2300.00
2018-02-21T15:39:44.132Z,2264.00
2018-02-21T15:40:44.059Z,2240.00
2018-02-21T15:42:37.434Z,2208.00
2018-02-21T15:43:37.342Z,2180.00
2018-02-21T15:45:30.582Z,2132.00
2018-02-21T15:46:30.508Z,2108.00
2018-02-21T15:48:23.769Z,2056.00
2018-02-21T15:49:23.674Z,2028.00
2018-02-21T15:51:16.936Z,1996.00
2018-02-21T15:52:16.914Z,1968.00
2018-02-21T15:54:10.086Z,1904.00
2018-02-21T15:55:10.018Z,1872.00
2018-02-21T15:57:03.396Z,1804.00
2018-02-21T15:58:03.179Z,1772.00
2018-02-21T15:59:56.423Z,1704.00
2018-02-21T16:00:56.350Z,1668.00
2018-02-21T16:02:49.608Z,1596.00
2018-02-21T16:03:49.517Z,1548.00
2018-02-21T16:05:42.761Z,1452.00
2018-02-21T16:06:42.682Z,1404.00
2018-02-21T16:08:35.946Z,1308.00
2018-02-21T16:09:35.854Z,1260.00
2018-02-21T16:11:29.112Z,1188.00
2018-02-21T16:12:29.021Z,1148.00
2018-02-21T16:14:22.262Z,1084.00
2018-02-21T16:15:22.190Z,1048.00
2018-02-21T16:17:15.574Z,980.00
2018-02-21T16:18:15.358Z,944.00
2018-02-21T16:20:08.601Z,876.00
2018-02-21T16:21:08.525Z,836.00
2018-02-21T16:23:01.793Z,772.00
2018-02-21T16:24:01.701Z,736.00
2018-02-21T16:25:54.942Z,664.00
2018-02-21T16:26:54.869Z,624.00
2018-02-21T16:28:48.133Z,572.00
2018-02-21T16:29:48.041Z,552.00
2018-02-21T16:31:41.428Z,508.00
2018-02-21T16:32:41.340Z,484.00
2018-02-21T16:34:34.574Z,448.00
2018-02-21T16:35:34.500Z,432.00
2018-02-21T16:37:27.761Z,396.00
2018-02-21T16:38:27.666Z,372.00
2018-02-21T16:40:20.909Z,336.00
2018-02-21T16:41:20.838Z,312.00
2018-02-21T16:43:14.097Z,276.00
2018-02-21T16:44:14.004Z,260.00
2018-02-21T16:46:07.246Z,228.00
2018-02-21T16:47:07.174Z,216.00
2018-02-21T16:49:00.433Z,188.00
2018-02-21T16:50:00.338Z,176.00
2018-02-21T16:51:53.598Z,152.00
2018-02-21T16:52:53.505Z,140.00
2018-02-21T16:54:46.777Z,120.00
2018-02-21T16:55:46.702Z,108.00
2018-02-21T16:57:39.959Z,92.00
2018-02-21T16:58:39.865Z,80.00
2018-02-21T17:00:33.109Z,64.00
2018-02-21T17:01:33.036Z,56.00
2018-02-21T17:03:26.297Z,44.00
2018-02-21T17:04:26.202Z,40.00
2018-02-21T17:06:19.445Z,32.00
2018-02-21T17:07:19.370Z,28.00
2018-02-21T17:09:12.626Z,20.00
2018-02-21T17:10:12.534Z,16.00
2018-02-21T17:12:05.863Z,12.00
2018-02-21T17:13:05.716Z,8.00
2018-02-21T17:14:58.952Z,12.00
2018-02-21T17:15:58.877Z,8.00
2018-02-21T17:17:52.181Z,8.00
2018-02-21T17:18:52.042Z,4.00
2018-02-21T17:20:45.469Z,4.00
2018-02-21T17:21:45.353Z,0.00
2018-02-21T17:23:38.614Z,4.00
2018-02-21T17:24:38.518Z,0.00
2018-02-21T17:26:31.758Z,4.00
2018-02-21T17:27:31.682Z,4.00
2018-02-21T17:29:24.945Z,4.00
2018-02-21T17:30:24.883Z,0.00
2018-02-21T17:32:18.110Z,0.00
2018-02-21T17:33:18.014Z,0.00
2018-02-21T17:35:11.375Z,0.00
2018-02-21T17:36:11.178Z,0.00
2018-02-21T17:38:04.442Z,0.00
2018-02-21T17:39:04.347Z,0.00
2018-02-21T17:40:57.707Z,0.00
2018-02-21T17:41:57.514Z,0.00
2018-02-21T17:43:50.767Z,0.00
2018-02-21T17:44:50.680Z,0.00
2018-02-21T17:46:44.076Z,0.00
2018-02-21T17:47:43.845Z,0.00
2018-02-21T17:49:37.091Z,0.00
2018-02-21T17:50:37.019Z,0.00
2018-02-21T17:52:30.288Z,0.00
2018-02-21T17:53:30.193Z,0.00
2018-02-21T17:55:23.444Z,0.00
2018-02-21T17:56:23.369Z,0.00
2018-02-21T17:58:16.638Z,0.00
2018-02-21T17:59:16.545Z,0.00
2018-02-21T18:01:09.796Z,0.00
2018-02-21T18:02:09.722Z,0.00
2018-02-21T18:04:02.993Z,0.00
2018-02-21T18:05:02.900Z,0.00
2018-02-21T18:06:56.263Z,0.00
2018-02-21T18:07:56.070Z,0.00
2018-02-21T18:09:49.433Z,0.00
2018-02-21T18:10:49.340Z,0.00
2018-02-21T18:12:42.597Z,0.00